createdAt,value
2019-01-25T00:01:27.251Z,92.20
2019-01-25T00:03:55.046Z,92.30
2019-01-25T00:06:23.100Z,92.40
2019-01-25T00:08:50.695Z,92.40
2019-01-25T00:11:18.644Z,92.40
2019-01-25T00:13:46.335Z,92.20
2019-01-25T00:16:14.022Z,92.10
2019-01-25T00:18:41.605Z,92.00
2019-01-25T00:21:09.282Z,92.40
2019-01-25T00:23:36.914Z,92.30
2019-01-25T00:26:04.909Z,91.90
2019-01-25T00:28:32.544Z,91.90
2019-01-25T00:31:00.463Z,92.10
2019-01-25T00:33:27.994Z,92.20
2019-01-25T00:35:55.564Z,92.10
2019-01-25T00:38:23.080Z,91.90
2019-01-25T00:40:51.606Z,91.80
2019-01-25T00:43:19.192Z,92.30
2019-01-25T00:45:46.716Z,92.10
2019-01-25T00:48:14.266Z,92.20
2019-01-25T00:50:41.812Z,92.90
2019-01-25T00:53:09.652Z,92.10
2019-01-25T00:55:37.273Z,92.00
2019-01-25T00:58:05.342Z,91.80
2019-01-25T01:00:33.055Z,92.00
2019-01-25T01:03:00.891Z,92.00
2019-01-25T01:05:28.341Z,91.80
2019-01-25T01:07:55.935Z,91.60
2019-01-25T01:10:24.115Z,91.40
2019-01-25T01:12:52.153Z,91.70
2019-01-25T01:15:20.126Z,91.70
2019-01-25T01:17:47.866Z,91.90
2019-01-25T01:20:17.224Z,91.80
2019-01-25T01:22:45.735Z,91.70
2019-01-25T01:25:14.418Z,91.70
2019-01-25T01:27:42.296Z,91.80
2019-01-25T01:30:22.368Z,91.60
2019-01-25T01:32:50.653Z,91.30
2019-01-25T01:35:18.406Z,91.60
2019-01-25T01:37:48.315Z,91.90
2019-01-25T01:40:22.407Z,91.60
2019-01-25T01:42:50.365Z,91.70
2019-01-25T01:45:18.374Z,91.70
2019-01-25T01:47:46.209Z,91.60
2019-01-25T01:50:15.090Z,91.80
2019-01-25T01:52:43.787Z,92.00
2019-01-25T01:55:11.641Z,91.50
2019-01-25T01:57:39.211Z,91.50
2019-01-25T02:00:12.051Z,91.50
2019-01-25T02:02:39.855Z,91.50
2019-01-25T02:05:07.623Z,91.60
2019-01-25T02:07:35.431Z,91.70
2019-01-25T02:10:05.125Z,91.60
2019-01-25T02:12:32.586Z,91.60
2019-01-25T02:14:59.997Z,91.70
2019-01-25T02:17:27.498Z,91.40
2019-01-25T02:19:55.089Z,91.50
2019-01-25T02:22:23.709Z,91.50
2019-01-25T02:24:51.344Z,91.40
2019-01-25T02:27:18.808Z,91.50
2019-01-25T02:29:46.381Z,91.50
2019-01-25T02:32:14.005Z,91.50
2019-01-25T02:34:41.355Z,91.70
2019-01-25T02:37:09.077Z,92.00
2019-01-25T02:39:36.562Z,91.80
2019-01-25T02:42:04.289Z,91.60
2019-01-25T02:44:31.860Z,92.30
2019-01-25T02:46:59.570Z,91.60
2019-01-25T02:49:27.081Z,91.50
2019-01-25T02:51:55.326Z,91.40
2019-01-25T02:54:22.694Z,91.30
2019-01-25T02:56:50.145Z,91.10
2019-01-25T02:59:17.531Z,91.10
2019-01-25T03:01:45.324Z,91.10
2019-01-25T03:04:12.926Z,90.80
2019-01-25T03:06:40.921Z,90.70
2019-01-25T03:09:09.588Z,90.80
2019-01-25T03:11:37.842Z,90.90
2019-01-25T03:14:05.513Z,91.10
2019-01-25T03:16:33.098Z,91.00
2019-01-25T03:19:01.347Z,90.80
2019-01-25T03:21:28.875Z,90.80
2019-01-25T03:23:56.270Z,90.90
2019-01-25T03:26:23.790Z,91.00
2019-01-25T03:28:52.487Z,90.90
2019-01-25T03:31:20.102Z,90.80
2019-01-25T03:33:47.594Z,90.80
2019-01-25T03:36:15.214Z,90.80
2019-01-25T03:38:42.854Z,90.80
2019-01-25T03:41:10.338Z,90.70
2019-01-25T03:43:37.798Z,90.60
2019-01-25T03:46:05.485Z,90.60
2019-01-25T03:48:33.194Z,90.60
2019-01-25T03:51:01.563Z,90.60
2019-01-25T03:53:29.156Z,90.60
2019-01-25T03:55:57.127Z,90.60
2019-01-25T03:58:24.824Z,90.70
2019-01-25T04:00:52.449Z,90.60
2019-01-25T04:03:21.261Z,90.70
2019-01-25T04:05:50.982Z,90.80
2019-01-25T04:08:18.815Z,90.70
2019-01-25T04:10:46.983Z,90.60
2019-01-25T04:13:14.379Z,90.60
2019-01-25T04:15:42.129Z,90.60
2019-01-25T04:18:09.565Z,90.60
2019-01-25T04:22:57.408Z,90.60
2019-01-25T04:25:25.446Z,90.50
2019-01-25T04:27:52.931Z,90.50
2019-01-25T04:30:29.022Z,90.40
2019-01-25T04:32:56.942Z,90.40
2019-01-25T04:35:24.485Z,90.50
2019-01-25T04:37:52.177Z,90.60
2019-01-25T04:40:20.656Z,90.40
2019-01-25T04:42:48.363Z,90.50
2019-01-25T04:45:17.741Z,90.70
2019-01-25T04:47:45.482Z,90.60
2019-01-25T04:50:19.344Z,90.60
2019-01-25T04:52:48.562Z,90.50
2019-01-25T04:55:22.075Z,90.50
2019-01-25T04:57:49.917Z,90.40
2019-01-25T05:00:19.496Z,90.30
2019-01-25T05:02:56.087Z,90.40
2019-01-25T05:05:23.882Z,90.50
2019-01-25T05:08:08.557Z,90.50
2019-01-25T05:10:36.270Z,90.40
2019-01-25T05:13:04.259Z,90.30
2019-01-25T05:15:31.888Z,90.30
2019-01-25T05:17:59.474Z,90.40
2019-01-25T05:20:27.180Z,90.40
2019-01-25T05:22:57.140Z,90.40
2019-01-25T05:25:25.981Z,90.50
2019-01-25T05:27:53.597Z,90.50
2019-01-25T05:30:21.502Z,90.50
2019-01-25T05:32:49.269Z,90.40
2019-01-25T05:35:16.909Z,90.40
2019-01-25T05:37:44.654Z,90.30
2019-01-25T05:40:21.769Z,90.30
2019-01-25T05:42:49.319Z,90.20
2019-01-25T05:45:17.084Z,90.30
2019-01-25T05:47:44.623Z,90.40
2019-01-25T05:50:12.447Z,90.40
2019-01-25T05:52:40.305Z,90.40
2019-01-25T05:55:17.344Z,90.40
2019-01-25T05:57:44.870Z,90.40
2019-01-25T06:00:13.075Z,90.30
2019-01-25T06:02:40.901Z,90.30
2019-01-25T06:05:09.845Z,90.30
2019-01-25T06:07:37.622Z,90.40
2019-01-25T06:10:05.638Z,90.40
2019-01-25T06:12:33.065Z,90.40
2019-01-25T06:15:00.690Z,90.30
2019-01-25T06:17:28.353Z,90.70
2019-01-25T06:19:55.950Z,90.30
2019-01-25T06:22:23.428Z,90.30
2019-01-25T06:24:51.153Z,90.40
2019-01-25T06:27:18.787Z,90.30
2019-01-25T06:29:47.284Z,90.40
2019-01-25T06:32:14.875Z,90.60
2019-01-25T06:34:42.463Z,90.60
2019-01-25T06:37:09.971Z,90.50
2019-01-25T06:39:38.690Z,90.40
2019-01-25T06:42:06.426Z,90.40
2019-01-25T06:44:33.916Z,90.40
2019-01-25T06:47:01.287Z,90.50
2019-01-25T06:49:28.731Z,90.40
2019-01-25T06:51:56.350Z,90.30
2019-01-25T06:54:23.878Z,90.30
2019-01-25T06:56:51.308Z,90.30
2019-01-25T06:59:32.789Z,90.30
2019-01-25T07:02:22.630Z,90.20
2019-01-25T07:04:50.678Z,90.20
2019-01-25T07:07:24.141Z,90.20
2019-01-25T07:09:52.585Z,90.20
2019-01-25T07:12:20.238Z,90.20
2019-01-25T07:14:47.664Z,90.10
2019-01-25T07:17:17.244Z,90.10
2019-01-25T07:19:44.999Z,90.10
2019-01-25T07:22:14.367Z,90.10
2019-01-25T07:24:56.913Z,90.00
2019-01-25T07:27:20.127Z,90.00
2019-01-25T07:29:48.281Z,90.00
2019-01-25T07:32:16.013Z,90.00
2019-01-25T07:34:44.143Z,90.00
2019-01-25T07:37:12.026Z,89.90
2019-01-25T07:39:39.438Z,89.90
2019-01-25T07:42:07.165Z,89.90
2019-01-25T07:44:34.746Z,89.80
2019-01-25T07:47:02.525Z,89.70
2019-01-25T07:49:30.286Z,89.60
2019-01-25T07:51:58.266Z,89.40
2019-01-25T07:54:25.942Z,89.50
2019-01-25T07:56:53.548Z,89.50
2019-01-25T07:59:20.959Z,89.40
2019-01-25T08:01:48.513Z,89.20
2019-01-25T08:04:16.334Z,88.90
2019-01-25T08:06:43.853Z,88.90
2019-01-25T08:09:11.748Z,88.90
2019-01-25T08:11:39.456Z,88.60
2019-01-25T08:14:07.160Z,88.40
2019-01-25T08:16:34.966Z,88.80
2019-01-25T08:19:02.627Z,88.20
2019-01-25T08:21:30.569Z,88.10
2019-01-25T08:23:58.301Z,87.40
2019-01-25T08:26:26.097Z,87.40
2019-01-25T08:28:54.849Z,87.50
2019-01-25T08:31:22.463Z,87.00
2019-01-25T08:33:50.147Z,86.90
2019-01-25T08:36:19.058Z,86.90
2019-01-25T08:38:46.794Z,86.90
2019-01-25T08:41:14.712Z,86.90
2019-01-25T08:43:42.531Z,86.90
2019-01-25T08:46:10.213Z,86.80
2019-01-25T08:48:38.277Z,86.50
2019-01-25T08:51:06.505Z,86.60
2019-01-25T08:53:34.223Z,86.40
2019-01-25T08:56:01.923Z,86.70
2019-01-25T08:58:29.618Z,86.80
2019-01-25T09:00:57.081Z,86.40
2019-01-25T09:03:24.827Z,86.20
2019-01-25T09:05:52.472Z,85.10
2019-01-25T09:08:20.258Z,84.60
2019-01-25T09:10:47.957Z,84.10
2019-01-25T09:13:15.396Z,86.30
2019-01-25T09:15:43.077Z,85.30
2019-01-25T09:18:10.744Z,85.20
2019-01-25T09:20:38.557Z,85.00
2019-01-25T09:23:06.826Z,84.60
2019-01-25T09:25:34.556Z,83.90
2019-01-25T09:28:02.200Z,84.00
2019-01-25T09:30:29.765Z,84.10
2019-01-25T09:32:57.604Z,84.10
2019-01-25T09:35:25.285Z,84.10
2019-01-25T09:37:54.565Z,83.80
2019-01-25T09:40:30.292Z,83.10
2019-01-25T09:42:58.987Z,82.30
2019-01-25T09:45:29.624Z,81.60
2019-01-25T09:48:11.690Z,81.60
2019-01-25T09:50:39.535Z,81.90
2019-01-25T09:53:07.184Z,81.20
2019-01-25T09:55:35.090Z,81.50
2019-01-25T09:58:06.433Z,81.00
2019-01-25T10:00:42.749Z,79.80
2019-01-25T10:03:10.283Z,79.50
2019-01-25T10:05:38.185Z,79.60
2019-01-25T10:08:05.808Z,79.00
2019-01-25T10:10:33.651Z,77.70
2019-01-25T10:13:01.814Z,79.00
2019-01-25T10:15:30.079Z,77.00
2019-01-25T10:17:58.064Z,76.50
2019-01-25T10:20:26.281Z,77.00
2019-01-25T10:22:53.998Z,78.10
2019-01-25T10:25:22.853Z,77.50
2019-01-25T10:27:50.553Z,75.30
2019-01-25T10:30:26.531Z,76.70
2019-01-25T10:32:56.306Z,75.10
2019-01-25T10:35:26.307Z,78.50
2019-01-25T10:37:53.963Z,77.70
2019-01-25T10:40:21.864Z,77.00
2019-01-25T10:42:53.489Z,76.60
2019-01-25T10:45:25.990Z,76.30
2019-01-25T10:47:53.756Z,75.60
2019-01-25T10:50:22.465Z,75.10
2019-01-25T10:52:50.234Z,75.30
2019-01-25T10:55:20.132Z,74.00
2019-01-25T10:57:50.145Z,74.70
2019-01-25T11:00:17.944Z,73.60
2019-01-25T11:02:45.455Z,74.20
2019-01-25T11:05:17.818Z,74.60
2019-01-25T11:07:45.157Z,75.10
2019-01-25T11:10:12.898Z,75.10
2019-01-25T11:12:40.501Z,75.10
2019-01-25T11:15:11.332Z,76.00
2019-01-25T11:17:41.080Z,75.90
2019-01-25T11:20:15.483Z,76.00
2019-01-25T11:22:43.504Z,75.90
2019-01-25T11:25:25.283Z,75.80
2019-01-25T11:27:53.370Z,76.60
2019-01-25T11:30:21.436Z,76.20
2019-01-25T11:32:49.100Z,76.10
2019-01-25T11:35:16.852Z,75.30
2019-01-25T11:37:45.555Z,75.30
2019-01-25T11:40:28.678Z,75.00
2019-01-25T11:42:56.197Z,74.90
2019-01-25T11:45:23.727Z,74.40
2019-01-25T11:47:51.384Z,74.20
2019-01-25T11:50:19.193Z,73.10
2019-01-25T11:52:46.752Z,73.80
2019-01-25T11:55:15.176Z,72.70
2019-01-25T11:57:43.125Z,72.80
2019-01-25T12:00:27.722Z,73.30
2019-01-25T12:02:55.748Z,73.10
2019-01-25T12:05:23.964Z,73.30
2019-01-25T12:07:52.027Z,73.40
2019-01-25T12:10:29.489Z,73.60
2019-01-25T12:13:02.494Z,73.10
2019-01-25T12:15:35.728Z,73.30
2019-01-25T12:18:08.199Z,73.80
2019-01-25T12:20:36.662Z,74.10
2019-01-25T12:23:12.022Z,75.00
2019-01-25T12:25:45.416Z,74.70
2019-01-25T12:28:14.612Z,75.70
2019-01-25T12:30:42.554Z,76.70
2019-01-25T12:33:10.231Z,76.50
2019-01-25T12:35:40.732Z,77.00
2019-01-25T12:38:10.083Z,78.00
2019-01-25T12:40:41.805Z,78.80
2019-01-25T12:43:09.586Z,78.80
2019-01-25T12:45:38.214Z,79.10
2019-01-25T12:48:08.790Z,80.10
2019-01-25T12:51:12.985Z,79.60
2019-01-25T12:53:41.093Z,80.20
2019-01-25T12:56:08.717Z,80.40
2019-01-25T12:58:36.916Z,80.80
2019-01-25T13:01:06.111Z,81.10
2019-01-25T13:03:34.443Z,80.20
2019-01-25T13:06:02.065Z,80.40
2019-01-25T13:08:30.039Z,81.50
2019-01-25T13:10:57.682Z,81.70
2019-01-25T13:13:31.545Z,80.90
2019-01-25T13:15:54.762Z,81.50
2019-01-25T13:18:22.630Z,81.90
2019-01-25T13:20:50.266Z,82.00
2019-01-25T13:23:20.604Z,82.30
2019-01-25T13:25:48.073Z,81.60
2019-01-25T13:28:15.726Z,80.30
2019-01-25T13:30:43.450Z,80.70
2019-01-25T13:33:11.289Z,80.50
2019-01-25T13:35:38.923Z,80.10
2019-01-25T13:38:06.933Z,79.70
2019-01-25T13:40:35.244Z,79.30
2019-01-25T13:43:03.205Z,79.20
2019-01-25T13:45:30.793Z,79.20
2019-01-25T13:47:58.263Z,79.60
2019-01-25T13:50:29.533Z,79.60
2019-01-25T13:52:58.392Z,79.90
2019-01-25T13:55:26.204Z,80.00
2019-01-25T13:57:53.782Z,80.20
2019-01-25T14:00:55.805Z,81.80
2019-01-25T14:03:23.417Z,81.90
2019-01-25T14:05:53.359Z,82.60
2019-01-25T14:08:20.885Z,82.30
2019-01-25T14:10:48.545Z,82.50
2019-01-25T14:13:16.194Z,82.90
2019-01-25T14:15:45.503Z,83.40
2019-01-25T14:18:17.714Z,83.40
2019-01-25T14:20:45.339Z,83.30
2019-01-25T14:23:12.926Z,83.40
2019-01-25T14:25:40.537Z,84.30
2019-01-25T14:28:08.274Z,84.00
2019-01-25T14:30:39.347Z,84.10
2019-01-25T14:33:07.212Z,84.40
2019-01-25T14:35:35.393Z,84.90
2019-01-25T14:38:04.295Z,84.90
2019-01-25T14:40:32.229Z,85.60
2019-01-25T14:43:00.534Z,85.60
2019-01-25T14:45:32.272Z,87.10
2019-01-25T14:48:00.424Z,86.30
2019-01-25T14:50:28.781Z,86.40
2019-01-25T14:52:56.606Z,86.40
2019-01-25T14:55:24.547Z,86.90
2019-01-25T14:57:52.303Z,86.90
2019-01-25T15:00:20.409Z,87.20
2019-01-25T15:02:48.161Z,87.70
2019-01-25T15:05:18.440Z,88.90
2019-01-25T15:07:46.023Z,88.30
2019-01-25T15:10:19.827Z,88.40
2019-01-25T15:12:48.815Z,88.50
2019-01-25T15:15:16.548Z,88.30
2019-01-25T15:17:46.085Z,88.10
2019-01-25T15:20:20.446Z,89.00
2019-01-25T15:23:35.142Z,88.60
2019-01-25T15:26:03.067Z,88.80
2019-01-25T15:28:30.945Z,89.40
2019-01-25T15:30:58.767Z,89.00
2019-01-25T15:33:27.958Z,89.20
2019-01-25T15:35:56.026Z,89.40
2019-01-25T15:38:23.546Z,90.00
2019-01-25T15:40:51.465Z,89.80
2019-01-25T15:43:20.576Z,89.80
2019-01-25T15:45:48.310Z,90.10
2019-01-25T15:48:15.962Z,90.00
2019-01-25T15:50:43.882Z,90.00
2019-01-25T15:53:12.450Z,89.80
2019-01-25T15:55:40.705Z,89.90
2019-01-25T15:58:09.275Z,89.60
2019-01-25T16:00:37.009Z,89.90
2019-01-25T16:03:05.324Z,89.60
2019-01-25T16:05:32.702Z,89.70
2019-01-25T16:08:00.343Z,89.60
2019-01-25T16:10:27.968Z,89.30
2019-01-25T16:12:56.232Z,89.20
2019-01-25T16:15:30.287Z,89.40
2019-01-25T16:18:00.080Z,89.00
2019-01-25T16:20:27.943Z,89.30
2019-01-25T16:22:56.924Z,89.20
2019-01-25T16:25:31.991Z,89.10
2019-01-25T16:27:59.824Z,90.00
2019-01-25T16:30:34.114Z,89.40
2019-01-25T16:33:02.732Z,89.40
2019-01-25T16:35:30.419Z,88.90
2019-01-25T16:37:58.154Z,88.70
2019-01-25T16:40:26.949Z,88.80
2019-01-25T16:42:54.329Z,88.50
2019-01-25T16:45:31.992Z,89.00
2019-01-25T16:47:59.491Z,88.90
2019-01-25T16:50:27.114Z,88.70
2019-01-25T16:52:54.637Z,89.60
2019-01-25T16:55:22.099Z,88.60
2019-01-25T16:57:49.797Z,89.10
2019-01-25T17:00:32.550Z,88.90
2019-01-25T17:03:01.057Z,88.50
2019-01-25T17:05:28.793Z,87.90
2019-01-25T17:07:56.561Z,88.20
2019-01-25T17:10:24.517Z,87.60
2019-01-25T17:12:52.433Z,87.50
2019-01-25T17:15:20.017Z,87.70
2019-01-25T17:17:47.614Z,87.70
2019-01-25T17:20:20.062Z,87.70
2019-01-25T17:22:45.607Z,86.70
2019-01-25T17:25:13.566Z,87.10
2019-01-25T17:27:41.277Z,87.30
2019-01-25T17:30:15.156Z,87.90
2019-01-25T17:32:42.810Z,87.80
2019-01-25T17:35:10.809Z,87.10
2019-01-25T17:37:38.311Z,87.10
2019-01-25T17:40:10.318Z,87.10
2019-01-25T17:42:38.725Z,87.00
2019-01-25T17:45:08.018Z,88.80
2019-01-25T17:47:36.575Z,87.50
2019-01-25T17:50:06.655Z,87.30
2019-01-25T17:52:34.491Z,87.30
2019-01-25T17:55:02.500Z,87.50
2019-01-25T17:57:30.865Z,87.60
2019-01-25T17:59:58.359Z,88.20
2019-01-25T18:02:25.879Z,87.70
2019-01-25T18:04:54.121Z,87.80
2019-01-25T18:07:21.610Z,87.70
2019-01-25T18:09:49.291Z,87.40
2019-01-25T18:12:17.291Z,87.40
2019-01-25T18:14:49.173Z,87.50
2019-01-25T18:17:14.347Z,87.90
2019-01-25T18:19:42.152Z,87.90
2019-01-25T18:22:09.729Z,88.00
2019-01-25T18:24:37.187Z,88.00
2019-01-25T18:27:04.849Z,87.70
2019-01-25T18:29:44.655Z,87.60
2019-01-25T18:32:12.148Z,88.20
2019-01-25T18:34:39.746Z,88.10
2019-01-25T18:37:07.425Z,88.40
2019-01-25T18:39:35.481Z,88.20
2019-01-25T18:42:05.767Z,89.50
2019-01-25T18:44:38.476Z,89.60
2019-01-25T18:47:09.967Z,89.60
2019-01-25T18:49:37.439Z,90.20
2019-01-25T18:52:06.241Z,89.80
2019-01-25T18:54:33.698Z,90.00
2019-01-25T18:57:01.331Z,90.00
2019-01-25T18:59:29.058Z,90.50
2019-01-25T19:01:57.468Z,90.50
2019-01-25T19:04:25.063Z,90.70
2019-01-25T19:06:55.279Z,89.50
2019-01-25T19:09:25.599Z,90.10
2019-01-25T19:11:53.007Z,90.40
2019-01-25T19:14:20.693Z,90.80
2019-01-25T19:16:48.123Z,90.30
2019-01-25T19:19:15.528Z,90.40
2019-01-25T19:21:43.386Z,90.30
2019-01-25T19:24:11.322Z,90.70
2019-01-25T19:26:39.347Z,90.60
2019-01-25T19:29:07.260Z,90.70
2019-01-25T19:31:36.438Z,91.00
2019-01-25T19:34:04.439Z,90.00
2019-01-25T19:36:33.954Z,89.30
2019-01-25T19:39:01.739Z,89.70
2019-01-25T19:41:31.249Z,89.50
2019-01-25T19:43:59.179Z,90.50
2019-01-25T19:46:27.127Z,90.30
2019-01-25T19:48:54.521Z,89.80
2019-01-25T19:51:22.143Z,89.50
2019-01-25T19:53:49.702Z,89.60
2019-01-25T19:56:17.317Z,89.10
2019-01-25T19:58:53.246Z,88.90
2019-01-25T20:01:20.934Z,89.10
2019-01-25T20:03:48.488Z,89.40
2019-01-25T20:06:17.144Z,89.10
2019-01-25T20:08:45.460Z,89.10
2019-01-25T20:11:12.852Z,89.30
2019-01-25T20:13:40.908Z,89.00
2019-01-25T20:16:08.719Z,88.60
2019-01-25T20:18:36.657Z,88.70
2019-01-25T20:21:04.244Z,89.10
2019-01-25T20:23:34.219Z,89.20
2019-01-25T20:26:03.429Z,89.50
2019-01-25T20:28:31.908Z,90.20
2019-01-25T20:30:59.576Z,89.90
2019-01-25T20:33:27.317Z,90.00
2019-01-25T20:35:54.864Z,90.00
2019-01-25T20:38:24.363Z,90.20
2019-01-25T20:40:51.846Z,90.20
2019-01-25T20:43:19.500Z,90.00
2019-01-25T20:45:46.998Z,90.10
2019-01-25T20:48:14.543Z,89.80
2019-01-25T20:50:42.983Z,89.40
2019-01-25T20:53:12.058Z,89.40
2019-01-25T20:55:39.935Z,89.30
2019-01-25T20:58:08.210Z,89.60
2019-01-25T21:00:37.213Z,89.40
2019-01-25T21:03:07.891Z,89.70
2019-01-25T21:05:35.455Z,89.90
2019-01-25T21:08:03.082Z,90.00
2019-01-25T21:10:30.655Z,90.20
2019-01-25T21:12:58.273Z,90.30
2019-01-25T21:15:26.035Z,90.40
2019-01-25T21:17:54.043Z,90.60
2019-01-25T21:20:34.512Z,90.70
2019-01-25T21:23:03.221Z,90.80
2019-01-25T21:25:31.375Z,90.70
2019-01-25T21:27:58.928Z,90.70
2019-01-25T21:30:29.147Z,90.80
2019-01-25T21:32:56.845Z,90.90
2019-01-25T21:35:24.564Z,91.00
2019-01-25T21:37:52.906Z,91.00
2019-01-25T21:40:23.329Z,91.00
2019-01-25T21:42:51.267Z,90.90
2019-01-25T21:45:21.525Z,90.80
2019-01-25T21:47:49.225Z,90.70
2019-01-25T21:50:19.738Z,90.80
2019-01-25T21:52:47.337Z,90.80
2019-01-25T21:55:15.101Z,91.10
2019-01-25T21:57:42.691Z,90.90
2019-01-25T22:00:14.907Z,90.90
2019-01-25T22:02:42.535Z,91.10
2019-01-25T22:05:10.232Z,91.10
2019-01-25T22:07:37.842Z,91.10
2019-01-25T22:10:10.817Z,91.20
2019-01-25T22:12:38.635Z,91.00
2019-01-25T22:15:07.668Z,91.00
2019-01-25T22:17:35.147Z,90.90
2019-01-25T22:20:05.898Z,91.10
2019-01-25T22:22:33.386Z,91.10
2019-01-25T22:25:00.965Z,91.10
2019-01-25T22:27:28.504Z,91.10
2019-01-25T22:29:55.966Z,91.00
2019-01-25T22:32:43.851Z,91.10
2019-01-25T22:35:11.509Z,91.20
2019-01-25T22:37:39.059Z,91.10
2019-01-25T22:40:11.049Z,91.20
2019-01-25T22:42:38.779Z,91.30
2019-01-25T22:45:09.606Z,91.30
2019-01-25T22:47:37.078Z,91.20
2019-01-25T22:50:08.067Z,91.20
2019-01-25T22:52:35.711Z,91.20
2019-01-25T22:55:05.681Z,91.20
2019-01-25T22:57:33.054Z,91.20
2019-01-25T23:00:00.522Z,91.20
2019-01-25T23:02:28.223Z,91.30
2019-01-25T23:05:18.916Z,91.30
2019-01-25T23:07:46.513Z,91.50
2019-01-25T23:10:17.446Z,91.60
2019-01-25T23:12:45.107Z,91.50
2019-01-25T23:15:17.358Z,91.80
2019-01-25T23:17:45.939Z,91.40
2019-01-25T23:22:41.567Z,91.50
2019-01-25T23:25:10.039Z,91.50
2019-01-25T23:27:37.606Z,91.40
2019-01-25T23:30:12.268Z,91.30
2019-01-25T23:32:39.956Z,91.30
2019-01-25T23:35:07.609Z,91.30
2019-01-25T23:37:35.329Z,91.40
2019-01-25T23:40:05.664Z,91.30
2019-01-25T23:42:33.149Z,91.30
2019-01-25T23:45:03.661Z,91.20
2019-01-25T23:47:31.318Z,91.20
2019-01-25T23:49:59.001Z,91.30
2019-01-25T23:52:26.352Z,91.20
2019-01-25T23:54:53.899Z,91.30
2019-01-25T23:57:21.454Z,91.40
2019-01-25T23:59:48.898Z,91.20
